createdAt,value
2023-03-26T00:00:27.136Z,2.03
2023-03-26T00:02:29.693Z,1.60
2023-03-26T00:04:33.583Z,0.65
2023-03-26T00:06:39.631Z,0.75
2023-03-26T00:08:44.852Z,1.42
2023-03-26T00:10:47.003Z,2.35
2023-03-26T00:12:48.657Z,1.00
2023-03-26T00:14:51.635Z,1.30
2023-03-26T00:16:53.615Z,0.88
2023-03-26T00:18:55.885Z,1.20
2023-03-26T00:21:03.426Z,1.50
2023-03-26T00:23:05.424Z,3.60
2023-03-26T00:25:07.745Z,1.58
2023-03-26T00:27:09.704Z,2.25
2023-03-26T00:29:13.639Z,4.00
2023-03-26T00:31:15.608Z,1.33
2023-03-26T00:33:17.588Z,0.80
2023-03-26T00:35:19.298Z,1.60
2023-03-26T00:37:26.269Z,0.50
2023-03-26T00:39:29.233Z,1.10
2023-03-26T00:41:31.318Z,1.13
2023-03-26T00:43:36.280Z,0.60
2023-03-26T00:45:37.907Z,2.42
2023-03-26T00:47:40.431Z,1.85
2023-03-26T00:49:42.186Z,2.90
2023-03-26T00:51:43.898Z,1.98
2023-03-26T00:53:47.981Z,0.75
2023-03-26T00:55:49.673Z,2.90
2023-03-26T00:57:51.294Z,0.82
2023-03-26T00:59:52.893Z,2.30
2023-03-26T01:01:54.977Z,0.70
2023-03-26T01:04:08.304Z,2.25
2023-03-26T01:06:33.887Z,0.73
2023-03-26T01:08:47.203Z,1.17
2023-03-26T01:10:52.410Z,1.20
2023-03-26T01:12:54.421Z,2.05
2023-03-26T01:15:00.659Z,1.55
2023-03-26T01:17:06.762Z,1.08
2023-03-26T01:19:16.440Z,0.68
2023-03-26T01:21:22.789Z,1.02
2023-03-26T01:23:33.302Z,0.63
2023-03-26T01:25:42.181Z,1.88
2023-03-26T01:27:55.561Z,1.45
2023-03-26T01:30:12.301Z,1.38
2023-03-26T01:32:35.049Z,1.00
2023-03-26T01:35:15.713Z,1.15
2023-03-26T01:37:32.600Z,2.47
2023-03-26T01:39:53.390Z,0.80
2023-03-26T01:41:59.639Z,0.70
2023-03-26T01:44:10.987Z,0.95
2023-03-26T01:46:15.300Z,0.63
2023-03-26T01:48:17.317Z,1.60
2023-03-26T01:50:19.116Z,1.10
2023-03-26T01:52:25.166Z,1.17
2023-03-26T01:54:30.221Z,0.70
2023-03-26T01:56:36.141Z,0.60
2023-03-26T01:59:08.551Z,0.60
2023-03-26T02:01:24.312Z,0.63
2023-03-26T02:03:30.970Z,1.05
2023-03-26T02:05:39.049Z,2.00
2023-03-26T02:07:47.806Z,0.82
2023-03-26T02:09:58.670Z,0.77
2023-03-26T02:12:03.505Z,0.60
2023-03-26T02:14:07.439Z,0.82
2023-03-26T02:16:14.144Z,1.10
2023-03-26T02:18:15.948Z,0.80
2023-03-26T02:20:18.870Z,0.80
2023-03-26T02:22:21.007Z,2.08
2023-03-26T02:24:22.666Z,0.63
2023-03-26T02:26:25.543Z,1.80
2023-03-26T02:28:27.171Z,0.57
2023-03-26T02:30:29.710Z,0.70
2023-03-26T02:32:31.604Z,1.52
2023-03-26T02:34:33.426Z,0.98
2023-03-26T02:36:35.914Z,0.50
2023-03-26T02:38:37.839Z,0.70
2023-03-26T02:40:39.591Z,1.10
2023-03-26T02:42:41.298Z,0.93
2023-03-26T02:44:43.110Z,0.98
2023-03-26T02:46:44.809Z,0.88
2023-03-26T02:48:46.486Z,1.90
2023-03-26T02:50:50.077Z,0.90
2023-03-26T02:52:51.698Z,0.75
2023-03-26T02:54:53.570Z,0.68
2023-03-26T02:56:55.598Z,2.83
2023-03-26T02:58:57.218Z,0.90
2023-03-26T03:00:58.859Z,0.50
2023-03-26T03:03:04.469Z,0.93
2023-03-26T03:05:07.974Z,0.63
2023-03-26T03:07:09.659Z,0.80
2023-03-26T03:09:12.020Z,0.60
2023-03-26T03:11:22.189Z,1.50
2023-03-26T03:13:23.939Z,0.70
2023-03-26T03:15:25.629Z,0.60
2023-03-26T03:17:27.577Z,0.88
2023-03-26T03:19:29.262Z,0.77
2023-03-26T03:21:31.047Z,0.68
2023-03-26T03:23:33.098Z,13.95
2023-03-26T03:25:34.742Z,0.90
2023-03-26T03:27:39.206Z,1.38
2023-03-26T03:29:41.354Z,5.45
2023-03-26T03:31:43.039Z,2.95
2023-03-26T03:33:46.221Z,1.92
2023-03-26T03:35:49.558Z,1.52
2023-03-26T03:37:51.360Z,3.53
2023-03-26T03:39:53.094Z,0.93
2023-03-26T03:41:54.768Z,2.90
2023-03-26T03:43:56.896Z,2.75
2023-03-26T03:45:59.817Z,1.42
2023-03-26T03:48:01.816Z,3.97
2023-03-26T03:50:04.541Z,5.28
2023-03-26T03:52:06.801Z,0.95
2023-03-26T03:54:08.549Z,1.08
2023-03-26T03:56:10.560Z,1.35
2023-03-26T03:58:14.526Z,1.45
2023-03-26T04:00:17.009Z,1.55
2023-03-26T04:02:26.318Z,0.40
2023-03-26T04:04:28.412Z,0.70
2023-03-26T04:06:30.271Z,2.67
2023-03-26T04:08:31.874Z,1.08
2023-03-26T04:10:33.480Z,3.83
2023-03-26T04:12:35.336Z,1.13
2023-03-26T04:14:36.949Z,1.17
2023-03-26T04:16:38.586Z,1.08
2023-03-26T04:18:40.608Z,2.30
2023-03-26T04:20:46.969Z,1.90
2023-03-26T04:22:48.626Z,2.22
2023-03-26T04:24:50.275Z,1.55
2023-03-26T04:26:51.998Z,1.38
2023-03-26T04:29:00.836Z,4.70
2023-03-26T04:31:06.216Z,3.60
2023-03-26T04:33:15.298Z,2.13
2023-03-26T04:35:18.196Z,3.38
2023-03-26T04:37:27.635Z,2.20
2023-03-26T04:39:29.412Z,1.65
2023-03-26T04:41:32.338Z,0.57
2023-03-26T04:43:36.984Z,0.77
2023-03-26T04:45:39.507Z,1.35
2023-03-26T04:47:41.224Z,0.90
2023-03-26T04:49:42.918Z,0.60
2023-03-26T04:51:46.663Z,1.10
2023-03-26T04:53:52.933Z,0.68
2023-03-26T04:56:03.296Z,1.83
2023-03-26T04:58:05.479Z,1.95
2023-03-26T05:00:19.481Z,0.80
2023-03-26T05:02:21.186Z,3.03
2023-03-26T05:04:22.876Z,0.70
2023-03-26T05:06:27.854Z,0.65
2023-03-26T05:08:30.149Z,1.17
2023-03-26T05:10:31.989Z,1.52
2023-03-26T05:12:34.312Z,1.58
2023-03-26T05:14:36.218Z,3.33
2023-03-26T05:16:39.437Z,1.35
2023-03-26T05:18:41.161Z,1.10
2023-03-26T05:20:44.519Z,1.08
2023-03-26T05:22:47.090Z,1.85
2023-03-26T05:24:48.707Z,3.13
2023-03-26T05:26:51.335Z,5.88
2023-03-26T05:28:52.967Z,5.85
2023-03-26T05:30:54.841Z,12.18
2023-03-26T05:32:56.883Z,4.35
2023-03-26T05:34:58.605Z,4.63
2023-03-26T05:37:00.486Z,1.45
2023-03-26T05:39:03.338Z,3.42
2023-03-26T05:41:07.418Z,7.93
2023-03-26T05:43:09.060Z,0.88
2023-03-26T05:45:12.408Z,7.28
2023-03-26T05:47:14.126Z,1.27
2023-03-26T05:49:16.042Z,1.95
2023-03-26T05:51:17.786Z,3.45
2023-03-26T05:53:21.459Z,1.52
2023-03-26T05:55:23.084Z,2.88
2023-03-26T05:57:28.324Z,2.35
2023-03-26T05:59:29.988Z,12.45
2023-03-26T06:01:31.812Z,18.75
2023-03-26T06:03:38.309Z,7.45
2023-03-26T06:05:40.574Z,4.07
2023-03-26T06:07:42.182Z,9.20
2023-03-26T06:09:43.949Z,11.20
2023-03-26T06:11:45.675Z,3.65
2023-03-26T06:13:47.607Z,9.98
2023-03-26T06:15:49.367Z,7.22
2023-03-26T06:17:51.067Z,2.90
2023-03-26T06:19:52.778Z,16.85
2023-03-26T06:21:54.405Z,9.60
2023-03-26T06:23:56.507Z,9.65
2023-03-26T06:25:58.183Z,12.52
2023-03-26T06:27:59.869Z,4.55
2023-03-26T06:30:01.480Z,5.65
2023-03-26T06:32:16.297Z,4.25
2023-03-26T06:34:20.560Z,11.02
2023-03-26T06:36:22.235Z,5.60
2023-03-26T06:38:24.518Z,3.17
2023-03-26T06:40:26.229Z,9.35
2023-03-26T06:43:06.847Z,11.25
2023-03-26T06:44:49.606Z,5.25
2023-03-26T06:46:51.313Z,5.45
2023-03-26T06:48:53.434Z,6.13
2023-03-26T06:50:55.432Z,4.13
2023-03-26T06:52:57.234Z,6.40
2023-03-26T06:54:58.844Z,4.60
2023-03-26T06:57:00.606Z,55.53
2023-03-26T06:59:02.275Z,5.35
2023-03-26T07:01:04.051Z,10.25
2023-03-26T07:03:06.224Z,6.70
2023-03-26T07:05:08.301Z,7.53
2023-03-26T07:07:09.935Z,9.68
2023-03-26T07:09:11.685Z,2.03
2023-03-26T07:11:13.746Z,6.57
2023-03-26T07:13:15.507Z,12.18
2023-03-26T07:15:17.193Z,3.33
2023-03-26T07:17:18.915Z,5.00
2023-03-26T07:19:20.931Z,8.65
2023-03-26T07:21:23.239Z,11.57
2023-03-26T07:23:25.190Z,4.90
2023-03-26T07:25:27.123Z,10.80
2023-03-26T07:27:51.033Z,8.85
2023-03-26T07:29:58.737Z,18.08
2023-03-26T07:32:09.451Z,19.42
2023-03-26T07:34:48.781Z,7.90
2023-03-26T07:37:12.544Z,5.82
2023-03-26T07:39:51.250Z,7.95
2023-03-26T07:42:11.382Z,7.82
2023-03-26T07:44:22.420Z,8.48
2023-03-26T07:48:42.698Z,3.60
2023-03-26T07:50:45.250Z,4.03
2023-03-26T07:52:47.087Z,2.72
2023-03-26T07:54:49.248Z,2.88
2023-03-26T07:57:04.775Z,4.78
2023-03-26T07:59:29.086Z,6.78
2023-03-26T08:02:13.438Z,2.92
2023-03-26T08:04:42.967Z,3.63
2023-03-26T08:07:10.522Z,4.50
2023-03-26T08:09:41.611Z,7.60
2023-03-26T08:12:10.189Z,4.45
2023-03-26T08:14:28.562Z,3.70
2023-03-26T08:16:56.004Z,7.70
2023-03-26T08:19:16.648Z,7.10
2023-03-26T08:21:27.206Z,5.53
2023-03-26T08:23:50.999Z,5.35
2023-03-26T08:26:02.446Z,2.63
2023-03-26T08:28:07.500Z,4.32
2023-03-26T08:30:13.713Z,4.35
2023-03-26T08:32:17.561Z,3.78
2023-03-26T08:34:19.347Z,14.77
2023-03-26T08:36:21.022Z,6.20
2023-03-26T08:38:22.925Z,5.18
2023-03-26T08:40:48.758Z,8.90
2023-03-26T08:43:16.650Z,20.50
2023-03-26T08:45:42.836Z,10.27
2023-03-26T08:48:10.481Z,12.07
2023-03-26T08:50:49.444Z,4.60
2023-03-26T08:53:24.899Z,6.05
2023-03-26T08:55:52.401Z,3.58
2023-03-26T08:58:33.361Z,2.70
2023-03-26T09:01:12.054Z,8.75
2023-03-26T09:03:24.855Z,13.98
2023-03-26T09:05:48.324Z,4.43
2023-03-26T09:08:05.011Z,7.75
2023-03-26T09:10:48.907Z,6.05
2023-03-26T09:13:19.196Z,10.15
2023-03-26T09:15:42.420Z,3.22
2023-03-26T09:18:08.257Z,3.55
2023-03-26T09:20:45.424Z,8.02
2023-03-26T09:23:15.114Z,5.20
2023-03-26T09:25:30.800Z,9.15
2023-03-26T09:27:53.509Z,14.55
2023-03-26T09:30:27.987Z,12.55
2023-03-26T09:33:16.827Z,11.10
2023-03-26T09:35:39.235Z,2.50
2023-03-26T09:38:19.075Z,10.98
2023-03-26T09:40:29.384Z,16.55
2023-03-26T09:42:46.171Z,5.75
2023-03-26T09:45:24.008Z,8.98
2023-03-26T09:47:44.538Z,10.35
2023-03-26T09:50:37.190Z,16.55
2023-03-26T09:52:53.733Z,14.32
2023-03-26T09:55:07.872Z,15.82
2023-03-26T09:57:34.098Z,12.68
2023-03-26T09:59:52.997Z,6.32
2023-03-26T10:02:17.137Z,19.75
2023-03-26T10:04:38.528Z,27.20
2023-03-26T10:06:55.765Z,21.52
2023-03-26T10:09:08.713Z,25.17
2023-03-26T10:11:44.852Z,19.00
2023-03-26T10:14:04.479Z,36.72
2023-03-26T10:16:39.505Z,27.88
2023-03-26T10:18:41.213Z,19.15
2023-03-26T10:21:06.175Z,22.98
2023-03-26T10:23:41.958Z,25.40
2023-03-26T10:25:49.623Z,24.33
2023-03-26T10:28:09.521Z,17.10
2023-03-26T10:30:22.009Z,12.52
2023-03-26T10:32:30.627Z,12.68
2023-03-26T10:34:38.490Z,13.25
2023-03-26T10:36:55.438Z,14.13
2023-03-26T10:39:37.850Z,14.63
2023-03-26T10:41:53.495Z,11.50
2023-03-26T10:44:08.781Z,12.88
2023-03-26T10:46:41.705Z,8.43
2023-03-26T10:49:28.225Z,12.85
2023-03-26T10:51:36.297Z,7.18
2023-03-26T10:53:48.416Z,11.68
2023-03-26T10:55:57.175Z,9.60
2023-03-26T10:58:00.560Z,18.55
2023-03-26T11:00:25.540Z,9.52
2023-03-26T11:02:38.345Z,12.07
2023-03-26T11:05:00.228Z,10.55
2023-03-26T11:07:17.685Z,12.00
2023-03-26T11:09:23.318Z,9.70
2023-03-26T11:11:45.200Z,11.57
2023-03-26T11:13:52.797Z,9.00
2023-03-26T11:16:06.040Z,10.93
2023-03-26T11:18:23.247Z,8.65
2023-03-26T11:20:42.838Z,7.10
2023-03-26T11:23:13.294Z,11.98
2023-03-26T11:25:26.053Z,9.70
2023-03-26T11:27:36.819Z,6.68
2023-03-26T11:30:06.084Z,8.18
2023-03-26T11:32:27.131Z,9.18
2023-03-26T11:34:38.971Z,5.47
2023-03-26T11:36:46.841Z,8.48
2023-03-26T11:38:51.488Z,5.32
2023-03-26T11:40:56.176Z,10.88
2023-03-26T11:43:04.442Z,5.68
2023-03-26T11:45:19.414Z,7.03
2023-03-26T11:47:29.565Z,7.10
2023-03-26T11:49:32.189Z,6.00
2023-03-26T11:51:38.823Z,4.65
2023-03-26T11:53:40.648Z,7.20
2023-03-26T11:55:48.970Z,7.82
2023-03-26T11:57:55.337Z,4.30
2023-03-26T12:00:17.781Z,6.45
2023-03-26T12:02:34.059Z,5.32
2023-03-26T12:04:37.849Z,8.75
2023-03-26T12:06:50.118Z,6.63
2023-03-26T12:08:52.396Z,10.68
2023-03-26T12:11:10.271Z,3.30
2023-03-26T12:13:21.543Z,6.55
2023-03-26T12:15:24.394Z,4.65
2023-03-26T12:17:33.900Z,3.50
2023-03-26T12:19:40.039Z,4.50
2023-03-26T12:21:52.901Z,2.97
2023-03-26T12:24:01.884Z,4.47
2023-03-26T12:26:18.637Z,2.53
2023-03-26T12:28:21.339Z,4.80
2023-03-26T12:30:26.230Z,4.63
2023-03-26T12:32:46.432Z,4.95
2023-03-26T12:34:48.576Z,4.90
2023-03-26T12:36:56.551Z,3.28
2023-03-26T12:39:16.811Z,3.33
2023-03-26T12:42:36.579Z,3.30
2023-03-26T12:44:53.907Z,2.05
2023-03-26T12:47:56.162Z,3.47
2023-03-26T12:49:06.484Z,3.38
2023-03-26T12:51:31.444Z,1.65
2023-03-26T12:53:55.680Z,3.55
2023-03-26T12:56:21.823Z,2.22
2023-03-26T12:58:44.972Z,3.50
2023-03-26T13:00:49.592Z,3.03
2023-03-26T13:03:03.282Z,3.17
2023-03-26T13:05:21.304Z,1.30
2023-03-26T13:07:27.493Z,3.38
2023-03-26T13:09:41.501Z,4.63
2023-03-26T13:12:14.273Z,1.58
2023-03-26T13:14:34.671Z,1.90
2023-03-26T13:16:51.345Z,4.05
2023-03-26T13:18:57.994Z,1.55
2023-03-26T13:21:12.229Z,2.63
2023-03-26T13:23:27.113Z,1.70
2023-03-26T13:25:40.669Z,1.08
2023-03-26T13:28:10.747Z,1.00
2023-03-26T13:30:29.304Z,2.83
2023-03-26T13:32:47.477Z,3.22
2023-03-26T13:35:04.262Z,2.22
2023-03-26T13:37:18.194Z,1.52
2023-03-26T13:39:50.986Z,1.50
2023-03-26T13:42:23.920Z,1.73
2023-03-26T13:44:52.749Z,1.08
2023-03-26T13:47:16.749Z,0.98
2023-03-26T13:49:48.244Z,1.58
2023-03-26T13:52:05.725Z,1.42
2023-03-26T13:54:19.174Z,2.05
2023-03-26T13:56:29.403Z,1.08
2023-03-26T13:58:42.205Z,1.45
2023-03-26T14:01:04.117Z,1.38
2023-03-26T14:03:16.112Z,2.00
2023-03-26T14:05:31.397Z,5.15
2023-03-26T14:07:54.752Z,1.10
2023-03-26T14:10:11.497Z,1.42
2023-03-26T14:12:31.993Z,1.67
2023-03-26T14:14:57.048Z,2.15
2023-03-26T14:17:06.377Z,1.13
2023-03-26T14:19:42.169Z,1.50
2023-03-26T14:22:11.391Z,0.98
2023-03-26T14:24:13.027Z,0.80
2023-03-26T14:26:58.225Z,0.93
2023-03-26T14:29:23.976Z,1.27
2023-03-26T14:31:43.161Z,1.25
2023-03-26T14:34:03.617Z,0.63
2023-03-26T14:36:37.637Z,1.20
2023-03-26T14:39:16.666Z,1.25
2023-03-26T14:41:25.327Z,1.67
2023-03-26T14:43:45.914Z,10.50
2023-03-26T14:46:07.436Z,10.35
2023-03-26T14:48:30.576Z,7.25
2023-03-26T14:50:56.474Z,20.42
2023-03-26T14:53:01.903Z,9.30
2023-03-26T14:55:12.876Z,4.13
2023-03-26T14:57:36.496Z,9.18
2023-03-26T14:59:59.217Z,4.30
2023-03-26T15:02:22.846Z,6.75
2023-03-26T15:04:43.741Z,8.30
2023-03-26T15:07:22.690Z,4.85
2023-03-26T15:09:43.132Z,7.25
2023-03-26T15:12:15.695Z,4.93
2023-03-26T15:14:59.380Z,5.10
2023-03-26T15:17:55.329Z,5.70
2023-03-26T15:20:26.607Z,6.03
2023-03-26T15:25:05.217Z,7.13
2023-03-26T15:27:24.375Z,3.40
2023-03-26T15:29:43.173Z,6.25
2023-03-26T15:31:53.374Z,7.35
2023-03-26T15:34:21.276Z,29.17
2023-03-26T15:36:22.939Z,43.85
2023-03-26T15:38:48.721Z,38.35
2023-03-26T15:41:05.494Z,47.08
2023-03-26T15:43:14.157Z,29.02
2023-03-26T15:45:20.188Z,39.88
2023-03-26T15:47:54.017Z,19.45
2023-03-26T15:50:19.600Z,17.40
2023-03-26T15:52:27.875Z,17.60
2023-03-26T15:54:45.206Z,15.23
2023-03-26T15:57:17.618Z,17.40
2023-03-26T15:59:37.195Z,18.33
2023-03-26T16:01:46.464Z,14.90
2023-03-26T16:04:15.809Z,17.67
2023-03-26T16:06:30.873Z,14.40
2023-03-26T16:08:41.786Z,11.90
2023-03-26T16:10:58.167Z,14.15
2023-03-26T16:13:39.187Z,13.32
2023-03-26T16:15:41.082Z,8.05
2023-03-26T16:18:15.662Z,9.15
2023-03-26T16:20:34.216Z,9.20
2023-03-26T16:22:55.992Z,8.73
2023-03-26T16:25:28.938Z,8.02
2023-03-26T16:27:35.059Z,12.25
2023-03-26T16:30:12.427Z,7.45
2023-03-26T16:32:17.533Z,12.63
2023-03-26T16:34:24.885Z,12.35
2023-03-26T16:36:40.434Z,7.28
2023-03-26T16:39:04.777Z,8.70
2023-03-26T16:41:26.818Z,8.77
2023-03-26T16:43:51.308Z,11.27
2023-03-26T16:46:06.522Z,10.13
2023-03-26T16:48:32.311Z,15.48
2023-03-26T16:51:01.813Z,7.10
2023-03-26T16:53:22.698Z,7.82
2023-03-26T16:55:46.943Z,8.25
2023-03-26T16:58:21.779Z,6.05
2023-03-26T17:00:31.308Z,8.88
2023-03-26T17:02:49.464Z,6.28
2023-03-26T17:04:58.557Z,14.05
2023-03-26T17:07:08.658Z,13.35
2023-03-26T17:09:44.233Z,12.90
2023-03-26T17:12:19.112Z,9.35
2023-03-26T17:14:41.667Z,14.32
2023-03-26T17:17:12.120Z,10.90
2023-03-26T17:19:25.589Z,10.25
2023-03-26T17:21:46.014Z,7.03
2023-03-26T17:24:07.618Z,11.30
2023-03-26T17:26:33.476Z,8.60
2023-03-26T17:28:41.969Z,9.23
2023-03-26T17:31:08.736Z,15.15
2023-03-26T17:33:27.778Z,16.52
2023-03-26T17:35:43.674Z,15.07
2023-03-26T17:37:48.090Z,13.60
2023-03-26T17:39:55.841Z,18.15
2023-03-26T17:42:35.305Z,19.13
2023-03-26T17:44:44.357Z,15.90
2023-03-26T17:46:48.438Z,15.48
2023-03-26T17:48:58.395Z,13.90
2023-03-26T17:51:18.177Z,10.68
2023-03-26T17:53:31.021Z,11.40
2023-03-26T17:55:37.535Z,12.85
2023-03-26T17:57:43.704Z,9.98
2023-03-26T17:59:46.388Z,7.97
2023-03-26T18:01:52.810Z,11.13
2023-03-26T18:03:57.827Z,8.98
2023-03-26T18:06:09.753Z,10.77
2023-03-26T18:08:36.017Z,7.93
2023-03-26T18:10:58.525Z,9.65
2023-03-26T18:13:41.533Z,5.28
2023-03-26T18:15:54.276Z,4.80
2023-03-26T18:18:07.958Z,7.10
2023-03-26T18:20:24.550Z,6.90
2023-03-26T18:22:28.965Z,8.18
2023-03-26T18:24:36.484Z,4.18
2023-03-26T18:26:47.203Z,9.73
2023-03-26T18:28:54.600Z,5.22
2023-03-26T18:31:11.370Z,5.75
2023-03-26T18:33:15.577Z,11.30
2023-03-26T18:35:20.496Z,7.10
2023-03-26T18:37:27.277Z,4.82
2023-03-26T18:39:28.977Z,3.20
2023-03-26T18:41:39.303Z,9.68
2023-03-26T18:43:44.522Z,4.93
2023-03-26T18:45:50.473Z,12.55
2023-03-26T18:47:54.600Z,4.72
2023-03-26T18:49:58.122Z,4.75
2023-03-26T18:52:00.962Z,6.82
2023-03-26T18:54:05.807Z,8.93
2023-03-26T18:56:40.218Z,8.40
2023-03-26T18:58:43.757Z,5.43
2023-03-26T19:00:45.786Z,12.15
2023-03-26T19:02:49.926Z,4.97
2023-03-26T19:04:54.319Z,4.22
2023-03-26T19:06:56.897Z,2.80
2023-03-26T19:08:59.135Z,3.67
2023-03-26T19:11:04.841Z,1.63
2023-03-26T19:13:13.866Z,5.57
2023-03-26T19:15:16.979Z,4.07
2023-03-26T19:17:18.762Z,2.15
2023-03-26T19:19:23.008Z,5.22
2023-03-26T19:21:25.825Z,7.72
2023-03-26T19:23:34.966Z,4.60
2023-03-26T19:26:01.660Z,5.38
2023-03-26T19:28:05.149Z,5.40
2023-03-26T19:30:07.879Z,2.47
2023-03-26T19:32:32.181Z,4.03
2023-03-26T19:34:39.079Z,3.22
2023-03-26T19:37:01.488Z,1.42
2023-03-26T19:39:12.979Z,3.05
2023-03-26T19:41:26.576Z,4.57
2023-03-26T19:43:28.797Z,7.32
2023-03-26T19:45:34.528Z,8.88
2023-03-26T19:47:50.535Z,3.58
2023-03-26T19:50:27.704Z,1.52
2023-03-26T19:52:36.475Z,2.45
2023-03-26T19:54:59.768Z,1.73
2023-03-26T19:57:02.256Z,5.95
2023-03-26T19:59:05.357Z,2.83
2023-03-26T20:01:11.028Z,4.25
2023-03-26T20:03:13.081Z,2.28
2023-03-26T20:05:36.314Z,3.85
2023-03-26T20:07:39.161Z,3.08
2023-03-26T20:09:42.506Z,2.65
2023-03-26T20:11:44.485Z,3.00
2023-03-26T20:13:46.569Z,2.42
2023-03-26T20:16:05.002Z,1.00
2023-03-26T20:18:08.507Z,8.50
2023-03-26T20:20:14.126Z,3.83
2023-03-26T20:22:20.618Z,2.45
2023-03-26T20:24:24.624Z,1.83
2023-03-26T20:26:26.558Z,1.55
2023-03-26T20:28:28.226Z,3.78
2023-03-26T20:32:34.622Z,0.80
2023-03-26T20:34:36.365Z,2.05
2023-03-26T20:36:38.409Z,1.83
2023-03-26T20:38:41.434Z,1.35
2023-03-26T20:40:44.673Z,2.80
2023-03-26T20:42:47.209Z,1.02
2023-03-26T20:44:48.819Z,1.02
2023-03-26T20:46:50.869Z,1.08
2023-03-26T20:48:53.651Z,1.73
2023-03-26T20:50:57.068Z,3.38
2023-03-26T20:53:00.690Z,1.13
2023-03-26T20:55:03.698Z,0.70
2023-03-26T20:57:05.371Z,2.95
2023-03-26T20:59:10.998Z,2.78
2023-03-26T21:01:14.191Z,1.20
2023-03-26T21:03:17.843Z,1.42
2023-03-26T21:05:27.014Z,2.17
2023-03-26T21:07:28.692Z,3.05
2023-03-26T21:09:34.385Z,0.77
2023-03-26T21:12:07.677Z,1.73
2023-03-26T21:14:25.455Z,2.08
2023-03-26T21:16:27.448Z,1.42
2023-03-26T21:18:29.677Z,0.93
2023-03-26T21:20:34.553Z,1.02
2023-03-26T21:23:11.477Z,1.65
2023-03-26T21:25:15.165Z,1.02
2023-03-26T21:27:25.192Z,2.88
2023-03-26T21:29:27.311Z,0.90
2023-03-26T21:31:31.384Z,0.90
2023-03-26T21:33:33.267Z,0.98
2023-03-26T21:35:35.552Z,0.60
2023-03-26T21:37:38.262Z,2.05
2023-03-26T21:39:42.769Z,2.05
2023-03-26T21:41:49.144Z,2.38
2023-03-26T21:44:08.353Z,2.83
2023-03-26T21:46:10.812Z,1.30
2023-03-26T21:48:13.213Z,1.15
2023-03-26T21:50:22.072Z,1.33
2023-03-26T21:52:24.498Z,2.67
2023-03-26T21:54:29.257Z,3.38
2023-03-26T21:56:30.936Z,1.83
2023-03-26T21:59:20.409Z,1.10
2023-03-26T22:01:46.645Z,0.90
2023-03-26T22:03:59.782Z,2.05
2023-03-26T22:06:16.763Z,0.95
2023-03-26T22:08:37.099Z,2.58
2023-03-26T22:10:38.792Z,1.50
2023-03-26T22:12:41.485Z,2.63
2023-03-26T22:14:43.107Z,3.30
2023-03-26T22:16:44.727Z,2.08
2023-03-26T22:18:46.368Z,1.67
2023-03-26T22:20:48.963Z,1.42
2023-03-26T22:22:50.762Z,1.08
2023-03-26T22:24:52.429Z,1.10
2023-03-26T22:26:54.138Z,3.60
2023-03-26T22:28:56.824Z,1.83
2023-03-26T22:30:59.221Z,0.80
2023-03-26T22:33:01.389Z,3.22
2023-03-26T22:35:04.056Z,0.95
2023-03-26T22:37:05.730Z,1.98
2023-03-26T22:39:07.425Z,1.50
2023-03-26T22:41:09.205Z,1.02
2023-03-26T22:43:11.484Z,1.10
2023-03-26T22:45:13.717Z,1.27
2023-03-26T22:47:16.929Z,1.02
2023-03-26T22:49:18.966Z,2.22
2023-03-26T22:51:20.676Z,1.58
2023-03-26T22:53:23.155Z,0.80
2023-03-26T22:55:29.103Z,3.85
2023-03-26T22:57:31.937Z,2.33
2023-03-26T22:59:33.660Z,0.73
2023-03-26T23:01:36.137Z,2.28
2023-03-26T23:03:39.216Z,0.70
2023-03-26T23:05:41.126Z,0.90
2023-03-26T23:07:43.430Z,1.25
2023-03-26T23:09:45.562Z,1.73
2023-03-26T23:11:47.738Z,2.40
2023-03-26T23:13:50.208Z,1.85
2023-03-26T23:15:54.408Z,0.93
2023-03-26T23:17:58.479Z,1.05
2023-03-26T23:20:00.637Z,2.15
2023-03-26T23:22:02.281Z,1.95
2023-03-26T23:24:04.646Z,0.50
2023-03-26T23:26:06.814Z,0.60
2023-03-26T23:28:09.879Z,0.88
2023-03-26T23:30:13.285Z,0.90
2023-03-26T23:32:23.732Z,0.70
2023-03-26T23:34:26.490Z,1.67
2023-03-26T23:36:28.296Z,0.90
2023-03-26T23:38:43.564Z,0.85
2023-03-26T23:40:57.264Z,1.40
2023-03-26T23:42:59.190Z,1.95
2023-03-26T23:45:01.012Z,1.20
2023-03-26T23:47:02.657Z,0.70
2023-03-26T23:49:04.322Z,0.57
2023-03-26T23:51:06.720Z,0.73
2023-03-26T23:53:08.493Z,0.85
2023-03-26T23:55:10.265Z,0.60
2023-03-26T23:57:12.144Z,0.70
2023-03-26T23:59:13.909Z,0.52
